Terminal Aerodrome Forecast
Issued by NWS

Home | Current Version | Previous Version | Text Only | Print | Product List | Glossary On
Versions: 1 2 3 4 5 6 7 8 9 10 11 12 13 14
000
FTUS45 KGGW 301700
TAFGDV
TAF
KGDV 301722Z 3018/3118 06007KT P6SM SCT010 BKN020
     FM302100 08008KT P6SM SKC
     FM310300 10012KT P6SM SCT250
     FM311400 15018G24KT P6SM BKN200
      AMD LTD TO CLD VIS AND WIND=

USA.gov is the U.S. government's official web portal to all federal, state and local government web resources and services.